sensor_id;sensor_type;location;lat;lon;timestamp;P1;P2;P0
70570;PMS5003;58135;50.948;-1.458;2022-12-18T00:00:43;29;29;
70570;PMS5003;58135;50.948;-1.458;2022-12-18T00:03:08;35;30;
70570;PMS5003;58135;50.948;-1.458;2022-12-18T00:05:33;35;33;
70570;PMS5003;58135;50.948;-1.458;2022-12-18T00:07:58;27;26;
70570;PMS5003;58135;50.948;-1.458;2022-12-18T00:10:23;32;31;
70570;PMS5003;58135;50.948;-1.458;2022-12-18T00:12:49;31;30;
70570;PMS5003;58135;50.948;-1.458;2022-12-18T00:15:14;33;31;
70570;PMS5003;58135;50.948;-1.458;2022-12-18T00:17:39;32;32;
70570;PMS5003;58135;50.948;-1.458;2022-12-18T00:20:05;33;31;
70570;PMS5003;58135;50.948;-1.458;2022-12-18T00:22:30;28;28;
70570;PMS5003;58135;50.948;-1.458;2022-12-18T00:24:55;30;29;
70570;PMS5003;58135;50.948;-1.458;2022-12-18T00:27:21;33;32;
70570;PMS5003;58135;50.948;-1.458;2022-12-18T00:29:47;30;29;
70570;PMS5003;58135;50.948;-1.458;2022-12-18T00:32:12;26;25;
70570;PMS5003;58135;50.948;-1.458;2022-12-18T00:34:37;30;28;
70570;PMS5003;58135;50.948;-1.458;2022-12-18T00:37:03;28;27;
70570;PMS5003;58135;50.948;-1.458;2022-12-18T00:39:28;31;30;
70570;PMS5003;58135;50.948;-1.458;2022-12-18T00:41:53;27;26;
70570;PMS5003;58135;50.948;-1.458;2022-12-18T00:44:19;29;27;
70570;PMS5003;58135;50.948;-1.458;2022-12-18T00:46:44;21;21;
70570;PMS5003;58135;50.948;-1.458;2022-12-18T00:49:10;31;29;
70570;PMS5003;58135;50.948;-1.458;2022-12-18T00:51:35;23;23;
70570;PMS5003;58135;50.948;-1.458;2022-12-18T00:54:01;29;28;
70570;PMS5003;58135;50.948;-1.458;2022-12-18T00:56:27;29;29;
70570;PMS5003;58135;50.948;-1.458;2022-12-18T00:58:53;27;23;
70570;PMS5003;58135;50.948;-1.458;2022-12-18T01:01:18;26;24;
70570;PMS5003;58135;50.948;-1.458;2022-12-18T01:03:43;24;22;
70570;PMS5003;58135;50.948;-1.458;2022-12-18T01:06:10;28;27;
70570;PMS5003;58135;50.948;-1.458;2022-12-18T01:08:35;29;23;
70570;PMS5003;58135;50.948;-1.458;2022-12-18T01:11:00;22;21;
70570;PMS5003;58135;50.948;-1.458;2022-12-18T01:13:25;29;28;
70570;PMS5003;58135;50.948;-1.458;2022-12-18T01:15:50;25;24;
70570;PMS5003;58135;50.948;-1.458;2022-12-18T01:18:16;31;28;
70570;PMS5003;58135;50.948;-1.458;2022-12-18T01:20:41;23;23;
70570;PMS5003;58135;50.948;-1.458;2022-12-18T01:23:07;28;27;
70570;PMS5003;58135;50.948;-1.458;2022-12-18T01:25:33;25;24;
70570;PMS5003;58135;50.948;-1.458;2022-12-18T01:27:58;31;29;
70570;PMS5003;58135;50.948;-1.458;2022-12-18T01:30:23;33;32;
70570;PMS5003;58135;50.948;-1.458;2022-12-18T01:32:48;30;28;
70570;PMS5003;58135;50.948;-1.458;2022-12-18T01:35:14;30;30;
70570;PMS5003;58135;50.948;-1.458;2022-12-18T01:37:39;30;29;
70570;PMS5003;58135;50.948;-1.458;2022-12-18T01:40:05;30;28;
70570;PMS5003;58135;50.948;-1.458;2022-12-18T01:42:30;28;24;
70570;PMS5003;58135;50.948;-1.458;2022-12-18T01:44:57;31;30;
70570;PMS5003;58135;50.948;-1.458;2022-12-18T01:47:22;29;29;
70570;PMS5003;58135;50.948;-1.458;2022-12-18T01:49:46;30;29;
70570;PMS5003;58135;50.948;-1.458;2022-12-18T01:52:12;37;33;
70570;PMS5003;58135;50.948;-1.458;2022-12-18T01:54:37;31;29;
70570;PMS5003;58135;50.948;-1.458;2022-12-18T01:57:02;36;33;
70570;PMS5003;58135;50.948;-1.458;2022-12-18T01:59:28;33;32;
70570;PMS5003;58135;50.948;-1.458;2022-12-18T02:01:53;34;32;
70570;PMS5003;58135;50.948;-1.458;2022-12-18T02:04:20;34;33;
70570;PMS5003;58135;50.948;-1.458;2022-12-18T02:06:45;32;29;
70570;PMS5003;58135;50.948;-1.458;2022-12-18T02:09:11;36;33;
70570;PMS5003;58135;50.948;-1.458;2022-12-18T02:11:39;34;33;
70570;PMS5003;58135;50.948;-1.458;2022-12-18T02:14:03;41;36;
70570;PMS5003;58135;50.948;-1.458;2022-12-18T02:16:29;34;29;
70570;PMS5003;58135;50.948;-1.458;2022-12-18T02:18:54;34;33;
70570;PMS5003;58135;50.948;-1.458;2022-12-18T02:21:20;30;29;
70570;PMS5003;58135;50.948;-1.458;2022-12-18T02:23:47;30;29;
70570;PMS5003;58135;50.948;-1.458;2022-12-18T02:26:11;39;32;
70570;PMS5003;58135;50.948;-1.458;2022-12-18T02:28:35;34;33;
70570;PMS5003;58135;50.948;-1.458;2022-12-18T02:30:59;41;40;
70570;PMS5003;58135;50.948;-1.458;2022-12-18T02:33:25;31;30;
70570;PMS5003;58135;50.948;-1.458;2022-12-18T02:35:50;36;34;
70570;PMS5003;58135;50.948;-1.458;2022-12-18T02:38:16;41;39;
70570;PMS5003;58135;50.948;-1.458;2022-12-18T02:40:41;37;36;
70570;PMS5003;58135;50.948;-1.458;2022-12-18T02:43:07;33;31;
70570;PMS5003;58135;50.948;-1.458;2022-12-18T02:45:32;37;36;
70570;PMS5003;58135;50.948;-1.458;2022-12-18T02:47:57;38;36;
70570;PMS5003;58135;50.948;-1.458;2022-12-18T02:50:25;36;34;
70570;PMS5003;58135;50.948;-1.458;2022-12-18T02:52:51;32;31;
70570;PMS5003;58135;50.948;-1.458;2022-12-18T02:55:18;41;38;
70570;PMS5003;58135;50.948;-1.458;2022-12-18T02:57:40;41;37;
70570;PMS5003;58135;50.948;-1.458;2022-12-18T03:00:05;36;34;
70570;PMS5003;58135;50.948;-1.458;2022-12-18T03:02:32;34;32;
70570;PMS5003;58135;50.948;-1.458;2022-12-18T03:04:57;32;31;
70570;PMS5003;58135;50.948;-1.458;2022-12-18T03:07:21;34;33;
70570;PMS5003;58135;50.948;-1.458;2022-12-18T03:09:46;38;32;
70570;PMS5003;58135;50.948;-1.458;2022-12-18T03:12:12;35;31;
70570;PMS5003;58135;50.948;-1.458;2022-12-18T03:14:36;30;30;
70570;PMS5003;58135;50.948;-1.458;2022-12-18T03:17:02;32;31;
70570;PMS5003;58135;50.948;-1.458;2022-12-18T03:19:27;33;31;
70570;PMS5003;58135;50.948;-1.458;2022-12-18T03:21:53;32;32;
70570;PMS5003;58135;50.948;-1.458;2022-12-18T03:24:18;29;29;
70570;PMS5003;58135;50.948;-1.458;2022-12-18T03:26:44;30;29;
70570;PMS5003;58135;50.948;-1.458;2022-12-18T03:29:10;32;30;
70570;PMS5003;58135;50.948;-1.458;2022-12-18T03:31:34;32;29;
70570;PMS5003;58135;50.948;-1.458;2022-12-18T03:34:01;28;28;
70570;PMS5003;58135;50.948;-1.458;2022-12-18T03:36:25;29;27;
70570;PMS5003;58135;50.948;-1.458;2022-12-18T03:38:51;32;28;
70570;PMS5003;58135;50.948;-1.458;2022-12-18T03:41:18;29;28;
70570;PMS5003;58135;50.948;-1.458;2022-12-18T03:43:43;33;30;
70570;PMS5003;58135;50.948;-1.458;2022-12-18T03:46:11;30;28;
70570;PMS5003;58135;50.948;-1.458;2022-12-18T03:48:36;32;28;
70570;PMS5003;58135;50.948;-1.458;2022-12-18T03:50:59;27;25;
70570;PMS5003;58135;50.948;-1.458;2022-12-18T03:53:28;28;28;
70570;PMS5003;58135;50.948;-1.458;2022-12-18T03:55:50;26;24;
70570;PMS5003;58135;50.948;-1.458;2022-12-18T03:58:16;30;28;
70570;PMS5003;58135;50.948;-1.458;2022-12-18T04:00:41;25;25;
70570;PMS5003;58135;50.948;-1.458;2022-12-18T04:03:06;24;22;
70570;PMS5003;58135;50.948;-1.458;2022-12-18T04:05:31;26;25;
70570;PMS5003;58135;50.948;-1.458;2022-12-18T04:07:58;28;28;
70570;PMS5003;58135;50.948;-1.458;2022-12-18T04:10:23;31;28;
70570;PMS5003;58135;50.948;-1.458;2022-12-18T04:12:48;29;29;
70570;PMS5003;58135;50.948;-1.458;2022-12-18T04:15:14;28;28;
70570;PMS5003;58135;50.948;-1.458;2022-12-18T04:17:39;30;30;
70570;PMS5003;58135;50.948;-1.458;2022-12-18T04:20:05;32;32;
70570;PMS5003;58135;50.948;-1.458;2022-12-18T04:22:29;30;28;
70570;PMS5003;58135;50.948;-1.458;2022-12-18T04:24:55;27;25;
70570;PMS5003;58135;50.948;-1.458;2022-12-18T04:27:20;26;26;
70570;PMS5003;58135;50.948;-1.458;2022-12-18T04:29:46;31;31;
70570;PMS5003;58135;50.948;-1.458;2022-12-18T04:32:11;26;25;
70570;PMS5003;58135;50.948;-1.458;2022-12-18T04:34:37;32;29;
70570;PMS5003;58135;50.948;-1.458;2022-12-18T04:37:02;26;25;
70570;PMS5003;58135;50.948;-1.458;2022-12-18T04:39:28;27;26;
70570;PMS5003;58135;50.948;-1.458;2022-12-18T04:41:54;29;27;
70570;PMS5003;58135;50.948;-1.458;2022-12-18T04:44:19;23;23;
70570;PMS5003;58135;50.948;-1.458;2022-12-18T04:46:44;28;27;
70570;PMS5003;58135;50.948;-1.458;2022-12-18T04:49:10;29;26;
70570;PMS5003;58135;50.948;-1.458;2022-12-18T04:51:35;30;30;
70570;PMS5003;58135;50.948;-1.458;2022-12-18T04:54:01;30;27;
70570;PMS5003;58135;50.948;-1.458;2022-12-18T04:56:27;32;30;
70570;PMS5003;58135;50.948;-1.458;2022-12-18T04:58:52;28;27;
70570;PMS5003;58135;50.948;-1.458;2022-12-18T05:01:17;29;28;
70570;PMS5003;58135;50.948;-1.458;2022-12-18T05:03:42;31;28;
70570;PMS5003;58135;50.948;-1.458;2022-12-18T05:06:08;37;34;
70570;PMS5003;58135;50.948;-1.458;2022-12-18T05:08:33;32;30;
70570;PMS5003;58135;50.948;-1.458;2022-12-18T05:10:58;32;31;
70570;PMS5003;58135;50.948;-1.458;2022-12-18T05:13:23;32;32;
70570;PMS5003;58135;50.948;-1.458;2022-12-18T05:15:51;41;37;
70570;PMS5003;58135;50.948;-1.458;2022-12-18T05:18:14;40;38;
70570;PMS5003;58135;50.948;-1.458;2022-12-18T05:20:39;39;36;
70570;PMS5003;58135;50.948;-1.458;2022-12-18T05:23:04;37;34;
70570;PMS5003;58135;50.948;-1.458;2022-12-18T05:25:30;50;47;
70570;PMS5003;58135;50.948;-1.458;2022-12-18T05:27:55;39;38;
70570;PMS5003;58135;50.948;-1.458;2022-12-18T05:30:20;39;35;
70570;PMS5003;58135;50.948;-1.458;2022-12-18T05:32:45;38;37;
70570;PMS5003;58135;50.948;-1.458;2022-12-18T05:35:11;38;37;
70570;PMS5003;58135;50.948;-1.458;2022-12-18T05:37:36;40;39;
70570;PMS5003;58135;50.948;-1.458;2022-12-18T05:40:02;39;34;
70570;PMS5003;58135;50.948;-1.458;2022-12-18T05:42:28;43;40;
70570;PMS5003;58135;50.948;-1.458;2022-12-18T05:44:53;43;42;
70570;PMS5003;58135;50.948;-1.458;2022-12-18T05:47:19;43;40;
70570;PMS5003;58135;50.948;-1.458;2022-12-18T05:49:44;42;41;
70570;PMS5003;58135;50.948;-1.458;2022-12-18T05:52:10;39;36;
70570;PMS5003;58135;50.948;-1.458;2022-12-18T05:54:36;38;35;
70570;PMS5003;58135;50.948;-1.458;2022-12-18T05:57:01;40;36;
70570;PMS5003;58135;50.948;-1.458;2022-12-18T05:59:27;36;33;
70570;PMS5003;58135;50.948;-1.458;2022-12-18T06:01:52;33;33;
70570;PMS5003;58135;50.948;-1.458;2022-12-18T06:04:17;41;38;
70570;PMS5003;58135;50.948;-1.458;2022-12-18T06:06:43;38;36;
70570;PMS5003;58135;50.948;-1.458;2022-12-18T06:09:09;42;39;
70570;PMS5003;58135;50.948;-1.458;2022-12-18T06:11:34;36;35;
70570;PMS5003;58135;50.948;-1.458;2022-12-18T06:13:59;39;37;
70570;PMS5003;58135;50.948;-1.458;2022-12-18T06:16:25;37;35;
70570;PMS5003;58135;50.948;-1.458;2022-12-18T06:18:50;37;36;
70570;PMS5003;58135;50.948;-1.458;2022-12-18T06:21:16;31;30;
70570;PMS5003;58135;50.948;-1.458;2022-12-18T06:23:42;35;35;
70570;PMS5003;58135;50.948;-1.458;2022-12-18T06:26:08;35;32;
70570;PMS5003;58135;50.948;-1.458;2022-12-18T06:28:33;31;30;
70570;PMS5003;58135;50.948;-1.458;2022-12-18T06:30:59;27;26;
70570;PMS5003;58135;50.948;-1.458;2022-12-18T06:33:25;35;34;
70570;PMS5003;58135;50.948;-1.458;2022-12-18T06:35:49;30;29;
70570;PMS5003;58135;50.948;-1.458;2022-12-18T06:38:14;30;29;
70570;PMS5003;58135;50.948;-1.458;2022-12-18T06:40:40;33;31;
70570;PMS5003;58135;50.948;-1.458;2022-12-18T06:43:05;32;29;
70570;PMS5003;58135;50.948;-1.458;2022-12-18T06:45:31;27;27;
70570;PMS5003;58135;50.948;-1.458;2022-12-18T06:47:56;24;20;
70570;PMS5003;58135;50.948;-1.458;2022-12-18T06:50:21;23;22;
70570;PMS5003;58135;50.948;-1.458;2022-12-18T06:52:46;24;24;
70570;PMS5003;58135;50.948;-1.458;2022-12-18T06:55:12;25;23;
70570;PMS5003;58135;50.948;-1.458;2022-12-18T06:57:37;25;25;
70570;PMS5003;58135;50.948;-1.458;2022-12-18T07:00:03;23;22;
70570;PMS5003;58135;50.948;-1.458;2022-12-18T07:02:28;28;28;
70570;PMS5003;58135;50.948;-1.458;2022-12-18T07:04:54;30;28;
70570;PMS5003;58135;50.948;-1.458;2022-12-18T07:07:19;24;24;
70570;PMS5003;58135;50.948;-1.458;2022-12-18T07:09:45;27;27;
70570;PMS5003;58135;50.948;-1.458;2022-12-18T07:12:10;25;25;
70570;PMS5003;58135;50.948;-1.458;2022-12-18T07:14:35;33;31;
70570;PMS5003;58135;50.948;-1.458;2022-12-18T07:17:00;24;22;
70570;PMS5003;58135;50.948;-1.458;2022-12-18T07:19:26;26;25;
70570;PMS5003;58135;50.948;-1.458;2022-12-18T07:21:51;27;26;
70570;PMS5003;58135;50.948;-1.458;2022-12-18T07:24:17;27;26;
70570;PMS5003;58135;50.948;-1.458;2022-12-18T07:26:42;27;26;
70570;PMS5003;58135;50.948;-1.458;2022-12-18T07:29:08;24;24;
70570;PMS5003;58135;50.948;-1.458;2022-12-18T07:31:33;33;29;
70570;PMS5003;58135;50.948;-1.458;2022-12-18T07:33:59;30;30;
70570;PMS5003;58135;50.948;-1.458;2022-12-18T07:36:24;26;24;
70570;PMS5003;58135;50.948;-1.458;2022-12-18T07:38:49;34;32;
70570;PMS5003;58135;50.948;-1.458;2022-12-18T07:41:15;39;38;
70570;PMS5003;58135;50.948;-1.458;2022-12-18T07:43:41;36;33;
70570;PMS5003;58135;50.948;-1.458;2022-12-18T07:46:07;33;32;
70570;PMS5003;58135;50.948;-1.458;2022-12-18T07:48:32;35;34;
70570;PMS5003;58135;50.948;-1.458;2022-12-18T07:50:57;32;32;
70570;PMS5003;58135;50.948;-1.458;2022-12-18T07:53:23;29;27;
70570;PMS5003;58135;50.948;-1.458;2022-12-18T07:55:48;35;34;
70570;PMS5003;58135;50.948;-1.458;2022-12-18T07:58:13;36;35;
70570;PMS5003;58135;50.948;-1.458;2022-12-18T08:00:39;28;27;
70570;PMS5003;58135;50.948;-1.458;2022-12-18T08:03:04;30;30;
70570;PMS5003;58135;50.948;-1.458;2022-12-18T08:05:30;26;26;
70570;PMS5003;58135;50.948;-1.458;2022-12-18T08:07:55;33;31;
70570;PMS5003;58135;50.948;-1.458;2022-12-18T08:10:20;36;35;
70570;PMS5003;58135;50.948;-1.458;2022-12-18T08:12:48;35;32;
70570;PMS5003;58135;50.948;-1.458;2022-12-18T08:15:12;33;31;
70570;PMS5003;58135;50.948;-1.458;2022-12-18T08:17:37;35;33;
70570;PMS5003;58135;50.948;-1.458;2022-12-18T08:20:02;34;31;
70570;PMS5003;58135;50.948;-1.458;2022-12-18T08:22:28;37;35;
70570;PMS5003;58135;50.948;-1.458;2022-12-18T08:24:54;36;35;
70570;PMS5003;58135;50.948;-1.458;2022-12-18T08:27:19;30;29;
70570;PMS5003;58135;50.948;-1.458;2022-12-18T08:29:45;32;29;
70570;PMS5003;58135;50.948;-1.458;2022-12-18T08:32:10;34;33;
70570;PMS5003;58135;50.948;-1.458;2022-12-18T08:34:36;34;31;
70570;PMS5003;58135;50.948;-1.458;2022-12-18T08:37:01;36;32;
70570;PMS5003;58135;50.948;-1.458;2022-12-18T08:39:26;35;34;
70570;PMS5003;58135;50.948;-1.458;2022-12-18T08:41:51;35;35;
70570;PMS5003;58135;50.948;-1.458;2022-12-18T08:44:17;33;29;
70570;PMS5003;58135;50.948;-1.458;2022-12-18T08:46:42;31;30;
70570;PMS5003;58135;50.948;-1.458;2022-12-18T08:49:08;33;31;
70570;PMS5003;58135;50.948;-1.458;2022-12-18T08:51:33;35;34;
70570;PMS5003;58135;50.948;-1.458;2022-12-18T08:53:59;34;33;
70570;PMS5003;58135;50.948;-1.458;2022-12-18T08:56:25;34;32;
70570;PMS5003;58135;50.948;-1.458;2022-12-18T08:58:51;34;33;
70570;PMS5003;58135;50.948;-1.458;2022-12-18T09:01:16;31;30;
70570;PMS5003;58135;50.948;-1.458;2022-12-18T09:03:41;38;34;
70570;PMS5003;58135;50.948;-1.458;2022-12-18T09:06:06;37;37;
70570;PMS5003;58135;50.948;-1.458;2022-12-18T09:08:32;32;30;
70570;PMS5003;58135;50.948;-1.458;2022-12-18T09:10:58;49;41;
70570;PMS5003;58135;50.948;-1.458;2022-12-18T09:13:24;35;32;
70570;PMS5003;58135;50.948;-1.458;2022-12-18T09:15:50;34;31;
70570;PMS5003;58135;50.948;-1.458;2022-12-18T09:18:16;32;32;
70570;PMS5003;58135;50.948;-1.458;2022-12-18T09:20:40;35;32;
70570;PMS5003;58135;50.948;-1.458;2022-12-18T09:23:06;30;26;
70570;PMS5003;58135;50.948;-1.458;2022-12-18T09:25:32;37;35;
70570;PMS5003;58135;50.948;-1.458;2022-12-18T09:27:57;34;34;
70570;PMS5003;58135;50.948;-1.458;2022-12-18T09:30:22;36;34;
70570;PMS5003;58135;50.948;-1.458;2022-12-18T09:32:48;40;37;
70570;PMS5003;58135;50.948;-1.458;2022-12-18T09:35:13;32;32;
70570;PMS5003;58135;50.948;-1.458;2022-12-18T09:37:38;31;29;
70570;PMS5003;58135;50.948;-1.458;2022-12-18T09:40:04;31;30;
70570;PMS5003;58135;50.948;-1.458;2022-12-18T09:42:29;35;33;
70570;PMS5003;58135;50.948;-1.458;2022-12-18T09:44:54;36;35;
70570;PMS5003;58135;50.948;-1.458;2022-12-18T09:47:20;38;33;
70570;PMS5003;58135;50.948;-1.458;2022-12-18T09:49:45;36;33;
70570;PMS5003;58135;50.948;-1.458;2022-12-18T09:52:12;32;31;
70570;PMS5003;58135;50.948;-1.458;2022-12-18T09:54:36;40;38;
70570;PMS5003;58135;50.948;-1.458;2022-12-18T09:57:00;35;34;
70570;PMS5003;58135;50.948;-1.458;2022-12-18T09:59:26;33;31;
70570;PMS5003;58135;50.948;-1.458;2022-12-18T10:01:51;35;33;
70570;PMS5003;58135;50.948;-1.458;2022-12-18T10:04:16;38;35;
70570;PMS5003;58135;50.948;-1.458;2022-12-18T10:06:43;38;37;
70570;PMS5003;58135;50.948;-1.458;2022-12-18T10:09:08;38;35;
70570;PMS5003;58135;50.948;-1.458;2022-12-18T10:11:34;45;43;
70570;PMS5003;58135;50.948;-1.458;2022-12-18T10:13:58;44;42;
70570;PMS5003;58135;50.948;-1.458;2022-12-18T10:16:24;35;32;
70570;PMS5003;58135;50.948;-1.458;2022-12-18T10:21:13;35;34;
70570;PMS5003;58135;50.948;-1.458;2022-12-18T10:23:39;45;42;
70570;PMS5003;58135;50.948;-1.458;2022-12-18T10:26:04;38;38;
70570;PMS5003;58135;50.948;-1.458;2022-12-18T10:28:30;40;37;
70570;PMS5003;58135;50.948;-1.458;2022-12-18T10:30:55;45;41;
70570;PMS5003;58135;50.948;-1.458;2022-12-18T10:33:21;40;37;
70570;PMS5003;58135;50.948;-1.458;2022-12-18T10:35:46;39;36;
70570;PMS5003;58135;50.948;-1.458;2022-12-18T10:38:21;40;36;
70570;PMS5003;58135;50.948;-1.458;2022-12-18T10:43:03;40;40;
70570;PMS5003;58135;50.948;-1.458;2022-12-18T10:45:28;46;41;
70570;PMS5003;58135;50.948;-1.458;2022-12-18T10:47:54;49;44;
70570;PMS5003;58135;50.948;-1.458;2022-12-18T10:50:19;45;41;
70570;PMS5003;58135;50.948;-1.458;2022-12-18T10:52:44;44;43;
70570;PMS5003;58135;50.948;-1.458;2022-12-18T10:55:15;43;40;
70570;PMS5003;58135;50.948;-1.458;2022-12-18T10:57:36;45;41;
70570;PMS5003;58135;50.948;-1.458;2022-12-18T11:02:27;42;39;
70570;PMS5003;58135;50.948;-1.458;2022-12-18T11:04:51;43;42;
70570;PMS5003;58135;50.948;-1.458;2022-12-18T11:07:17;41;38;
70570;PMS5003;58135;50.948;-1.458;2022-12-18T11:09:43;41;39;
70570;PMS5003;58135;50.948;-1.458;2022-12-18T11:14:34;50;46;
70570;PMS5003;58135;50.948;-1.458;2022-12-18T11:16:59;38;35;
70570;PMS5003;58135;50.948;-1.458;2022-12-18T11:19:28;47;46;
70570;PMS5003;58135;50.948;-1.458;2022-12-18T11:21:50;49;45;
70570;PMS5003;58135;50.948;-1.458;2022-12-18T11:24:18;44;42;
70570;PMS5003;58135;50.948;-1.458;2022-12-18T11:26:40;42;40;
70570;PMS5003;58135;50.948;-1.458;2022-12-18T11:29:08;42;38;
70570;PMS5003;58135;50.948;-1.458;2022-12-18T11:31:31;44;44;
70570;PMS5003;58135;50.948;-1.458;2022-12-18T11:33:58;37;37;
70570;PMS5003;58135;50.948;-1.458;2022-12-18T11:36:21;38;37;
70570;PMS5003;58135;50.948;-1.458;2022-12-18T11:38:46;45;42;
70570;PMS5003;58135;50.948;-1.458;2022-12-18T11:41:14;36;34;
70570;PMS5003;58135;50.948;-1.458;2022-12-18T11:43:38;39;38;
70570;PMS5003;58135;50.948;-1.458;2022-12-18T11:46:04;34;33;
70570;PMS5003;58135;50.948;-1.458;2022-12-18T11:48:29;36;34;
70570;PMS5003;58135;50.948;-1.458;2022-12-18T11:50:54;41;39;
70570;PMS5003;58135;50.948;-1.458;2022-12-18T11:53:20;35;34;
70570;PMS5003;58135;50.948;-1.458;2022-12-18T11:55:49;37;36;
70570;PMS5003;58135;50.948;-1.458;2022-12-18T11:58:12;32;30;
70570;PMS5003;58135;50.948;-1.458;2022-12-18T12:00:36;29;26;
70570;PMS5003;58135;50.948;-1.458;2022-12-18T12:03:10;36;34;
70570;PMS5003;58135;50.948;-1.458;2022-12-18T12:05:32;32;30;
70570;PMS5003;58135;50.948;-1.458;2022-12-18T12:07:53;33;31;
70570;PMS5003;58135;50.948;-1.458;2022-12-18T12:10:22;30;28;
70570;PMS5003;58135;50.948;-1.458;2022-12-18T12:12:46;28;25;
70570;PMS5003;58135;50.948;-1.458;2022-12-18T12:15:11;25;23;
70570;PMS5003;58135;50.948;-1.458;2022-12-18T12:17:34;24;23;
70570;PMS5003;58135;50.948;-1.458;2022-12-18T12:19:59;24;24;
70570;PMS5003;58135;50.948;-1.458;2022-12-18T12:22:24;21;21;
70570;PMS5003;58135;50.948;-1.458;2022-12-18T12:24:51;18;17;
70570;PMS5003;58135;50.948;-1.458;2022-12-18T12:27:15;24;22;
70570;PMS5003;58135;50.948;-1.458;2022-12-18T12:29:42;23;20;
70570;PMS5003;58135;50.948;-1.458;2022-12-18T12:32:07;16;16;
70570;PMS5003;58135;50.948;-1.458;2022-12-18T12:34:31;20;18;
70570;PMS5003;58135;50.948;-1.458;2022-12-18T12:37:00;17;16;
70570;PMS5003;58135;50.948;-1.458;2022-12-18T12:39:22;22;21;
70570;PMS5003;58135;50.948;-1.458;2022-12-18T12:41:47;18;17;
70570;PMS5003;58135;50.948;-1.458;2022-12-18T12:44:14;20;20;
70570;PMS5003;58135;50.948;-1.458;2022-12-18T12:46:39;23;22;
70570;PMS5003;58135;50.948;-1.458;2022-12-18T12:49:03;19;18;
70570;PMS5003;58135;50.948;-1.458;2022-12-18T12:51:30;18;17;
70570;PMS5003;58135;50.948;-1.458;2022-12-18T12:53:55;20;20;
70570;PMS5003;58135;50.948;-1.458;2022-12-18T12:56:20;19;19;
70570;PMS5003;58135;50.948;-1.458;2022-12-18T12:58:46;18;17;
70570;PMS5003;58135;50.948;-1.458;2022-12-18T13:01:13;17;17;
70570;PMS5003;58135;50.948;-1.458;2022-12-18T13:03:40;16;16;
70570;PMS5003;58135;50.948;-1.458;2022-12-18T13:06:02;19;18;
70570;PMS5003;58135;50.948;-1.458;2022-12-18T13:08:28;14;13;
70570;PMS5003;58135;50.948;-1.458;2022-12-18T13:10:52;19;18;
70570;PMS5003;58135;50.948;-1.458;2022-12-18T13:13:17;16;15;
70570;PMS5003;58135;50.948;-1.458;2022-12-18T13:15:43;15;14;
70570;PMS5003;58135;50.948;-1.458;2022-12-18T13:18:12;17;16;
70570;PMS5003;58135;50.948;-1.458;2022-12-18T13:20:34;14;14;
70570;PMS5003;58135;50.948;-1.458;2022-12-18T13:22:59;13;13;
70570;PMS5003;58135;50.948;-1.458;2022-12-18T13:25:28;14;14;
70570;PMS5003;58135;50.948;-1.458;2022-12-18T13:27:55;13;12;
70570;PMS5003;58135;50.948;-1.458;2022-12-18T13:32:41;19;18;
70570;PMS5003;58135;50.948;-1.458;2022-12-18T13:37:38;17;16;
70570;PMS5003;58135;50.948;-1.458;2022-12-18T13:39:58;11;11;
70570;PMS5003;58135;50.948;-1.458;2022-12-18T13:44:49;15;15;
70570;PMS5003;58135;50.948;-1.458;2022-12-18T13:49:40;13;13;
70570;PMS5003;58135;50.948;-1.458;2022-12-18T13:54:33;16;14;
70570;PMS5003;58135;50.948;-1.458;2022-12-18T13:56:57;12;12;
70570;PMS5003;58135;50.948;-1.458;2022-12-18T13:59:23;14;13;
70570;PMS5003;58135;50.948;-1.458;2022-12-18T14:01:50;10;10;
70570;PMS5003;58135;50.948;-1.458;2022-12-18T14:04:20;12;12;
70570;PMS5003;58135;50.948;-1.458;2022-12-18T14:06:39;12;12;
70570;PMS5003;58135;50.948;-1.458;2022-12-18T14:09:05;12;12;
70570;PMS5003;58135;50.948;-1.458;2022-12-18T14:11:31;12;12;
70570;PMS5003;58135;50.948;-1.458;2022-12-18T14:13:56;13;11;
70570;PMS5003;58135;50.948;-1.458;2022-12-18T14:16:22;12;12;
70570;PMS5003;58135;50.948;-1.458;2022-12-18T14:18:48;15;15;
70570;PMS5003;58135;50.948;-1.458;2022-12-18T14:21:24;15;14;
70570;PMS5003;58135;50.948;-1.458;2022-12-18T14:23:39;15;13;
70570;PMS5003;58135;50.948;-1.458;2022-12-18T14:28:29;15;14;
70570;PMS5003;58135;50.948;-1.458;2022-12-18T14:30:55;13;13;
70570;PMS5003;58135;50.948;-1.458;2022-12-18T14:33:21;11;11;
70570;PMS5003;58135;50.948;-1.458;2022-12-18T14:38:19;12;12;
70570;PMS5003;58135;50.948;-1.458;2022-12-18T14:40:37;12;11;
70570;PMS5003;58135;50.948;-1.458;2022-12-18T14:43:02;13;13;
70570;PMS5003;58135;50.948;-1.458;2022-12-18T14:45:32;9;9;
70570;PMS5003;58135;50.948;-1.458;2022-12-18T14:47:54;11;10;
70570;PMS5003;58135;50.948;-1.458;2022-12-18T14:50:19;11;11;
70570;PMS5003;58135;50.948;-1.458;2022-12-18T14:52:45;10;10;
70570;PMS5003;58135;50.948;-1.458;2022-12-18T14:55:14;8;8;
70570;PMS5003;58135;50.948;-1.458;2022-12-18T14:57:36;7;7;
70570;PMS5003;58135;50.948;-1.458;2022-12-18T15:00:03;7;7;
70570;PMS5003;58135;50.948;-1.458;2022-12-18T15:02:27;6;6;
70570;PMS5003;58135;50.948;-1.458;2022-12-18T15:07:18;8;8;
70570;PMS5003;58135;50.948;-1.458;2022-12-18T15:09:43;11;8;
70570;PMS5003;58135;50.948;-1.458;2022-12-18T15:14:35;9;8;
70570;PMS5003;58135;50.948;-1.458;2022-12-18T15:17:00;7;7;
70570;PMS5003;58135;50.948;-1.458;2022-12-18T15:19:27;8;8;
70570;PMS5003;58135;50.948;-1.458;2022-12-18T15:21:51;7;7;
70570;PMS5003;58135;50.948;-1.458;2022-12-18T15:24:17;8;8;
70570;PMS5003;58135;50.948;-1.458;2022-12-18T15:26:42;8;8;
70570;PMS5003;58135;50.948;-1.458;2022-12-18T15:31:34;8;7;
70570;PMS5003;58135;50.948;-1.458;2022-12-18T15:34:00;9;8;
70570;PMS5003;58135;50.948;-1.458;2022-12-18T15:36:25;11;10;
70570;PMS5003;58135;50.948;-1.458;2022-12-18T15:38:51;8;8;
70570;PMS5003;58135;50.948;-1.458;2022-12-18T15:41:17;8;8;
70570;PMS5003;58135;50.948;-1.458;2022-12-18T15:43:42;8;8;
70570;PMS5003;58135;50.948;-1.458;2022-12-18T15:46:10;10;9;
70570;PMS5003;58135;50.948;-1.458;2022-12-18T15:48:33;9;8;
70570;PMS5003;58135;50.948;-1.458;2022-12-18T15:50:58;8;8;
70570;PMS5003;58135;50.948;-1.458;2022-12-18T15:53:24;10;9;
70570;PMS5003;58135;50.948;-1.458;2022-12-18T15:55:50;10;10;
70570;PMS5003;58135;50.948;-1.458;2022-12-18T15:58:15;10;8;
70570;PMS5003;58135;50.948;-1.458;2022-12-18T16:00:41;12;10;
70570;PMS5003;58135;50.948;-1.458;2022-12-18T16:03:06;9;9;
70570;PMS5003;58135;50.948;-1.458;2022-12-18T16:05:32;11;10;
70570;PMS5003;58135;50.948;-1.458;2022-12-18T16:07:58;10;9;
70570;PMS5003;58135;50.948;-1.458;2022-12-18T16:10:23;9;9;
70570;PMS5003;58135;50.948;-1.458;2022-12-18T16:12:48;8;8;
70570;PMS5003;58135;50.948;-1.458;2022-12-18T16:15:14;7;7;
70570;PMS5003;58135;50.948;-1.458;2022-12-18T16:17:40;11;10;
70570;PMS5003;58135;50.948;-1.458;2022-12-18T16:20:06;9;9;
70570;PMS5003;58135;50.948;-1.458;2022-12-18T16:22:31;9;9;
70570;PMS5003;58135;50.948;-1.458;2022-12-18T16:24:57;11;11;